Time;durP1;ratioP1;P1;durP2;ratioP2;P2;SDS_P1;SDS_P2;PMS_P1;PMS_P2;Temp;Humidity;BMP_temperature;BMP_pressure;BME280_temperature;BME280_humidity;BME280_pressure;Samples;Min_cycle;Max_cycle;Signal;HPM_P1;HPM_P2
2022/10/25 00:01:56;;;;;;;;;;;;;;;13.66;100.00;97793.36;105431;1323;22270;-88
2022/10/25 00:04:23;;;;;;;;;;;;;;;13.68;100.00;97792.66;105499;1315;22263;-89
2022/10/25 00:06:51;;;;;;;;;;;;;;;13.70;100.00;97793.42;105794;1316;22290;-89
2022/10/25 00:09:19;;;;;;;;;;;;;;;13.71;100.00;97795.27;105820;1301;22407;-88
2022/10/25 00:11:46;;;;;;;;;;;;;;;13.71;100.00;97792.19;105398;1324;23024;-89
2022/10/25 00:14:17;;;;;;;;;;;;;;;13.70;100.00;97789.11;105627;1317;22356;-89
2022/10/25 00:16:45;;;;;;;;;;;;;;;13.70;100.00;97783.33;105425;1322;22274;-88
2022/10/25 00:19:13;;;;;;;;;;;;;;;13.71;100.00;97789.39;105791;1316;22289;-88
2022/10/25 00:21:40;;;;;;;;;;;;;;;13.71;100.00;97786.84;105808;1316;22266;-89
2022/10/25 00:24:10;;;;;;;;;;;;;;;13.71;100.00;97785.44;105411;1318;22337;-89
2022/10/25 00:26:41;;;;;;;;;;;;;;;13.71;100.00;97791.02;105840;1299;23110;-89
2022/10/25 00:29:09;;;;;;;;;;;;;;;13.71;100.00;97794.13;105428;1323;22896;-86
2022/10/25 00:31:37;;;;;;;;;;;;;;;13.71;100.00;97795.89;105119;1324;22275;-90
2022/10/25 00:34:05;;;;;;;;;;;;;;;13.72;100.00;97793.52;105337;1323;22311;-89
2022/10/25 00:36:33;;;;;;;;;;;;;;;13.71;100.00;97798.05;105429;1323;22266;-87
2022/10/25 00:39:00;;;;;;;;;;;;;;;13.70;100.00;97799.17;105312;1324;22257;-89
2022/10/25 00:41:29;;;;;;;;;;;;;;;13.71;100.00;97801.69;105438;1324;22243;-88
2022/10/25 00:44:16;;;;;;;;;;;;;;;13.70;100.00;97802.09;105830;1316;22267;-88
2022/10/25 00:46:44;;;;;;;;;;;;;;;13.71;100.00;97805.31;105820;1316;22309;-86
2022/10/25 00:49:13;;;;;;;;;;;;;;;13.69;100.00;97802.51;105410;1318;22229;-88
2022/10/25 00:51:43;;;;;;;;;;;;;;;13.66;100.00;97805.34;105409;1323;22380;-87
2022/10/25 00:54:13;;;;;;;;;;;;;;;13.62;100.00;97812.94;105317;1324;22912;-88
2022/10/25 00:56:43;;;;;;;;;;;;;;;13.62;100.00;97813.70;105421;1323;23047;-89
2022/10/25 00:59:13;;;;;;;;;;;;;;;13.62;100.00;97810.92;105645;1316;22326;-89
2022/10/25 01:01:41;;;;;;;;;;;;;;;13.61;100.00;97803.56;105428;1324;22217;-89
2022/10/25 01:04:12;;;;;;;;;;;;;;;13.60;100.00;97797.20;105432;1323;22365;-87
2022/10/25 01:06:41;;;;;;;;;;;;;;;13.57;100.00;97794.27;105814;1316;22267;-88
2022/10/25 01:09:12;;;;;;;;;;;;;;;13.56;100.00;97802.11;105788;1317;22278;-88
2022/10/25 01:11:39;;;;;;;;;;;;;;;13.54;100.00;97797.48;105411;1323;22229;-89
2022/10/25 01:14:09;;;;;;;;;;;;;;;13.52;100.00;97791.05;105430;1322;22361;-89
2022/10/25 01:16:56;;;;;;;;;;;;;;;13.50;100.00;97790.98;105647;1317;23108;-89
2022/10/25 01:19:43;;;;;;;;;;;;;;;13.47;100.00;97792.30;105822;1314;22285;-90
2022/10/25 01:22:14;;;;;;;;;;;;;;;13.45;100.00;97795.36;105418;1323;22249;-88
2022/10/25 01:25:17;;;;;;;;;;;;;;;13.40;100.00;97793.39;105652;1317;22271;-90
2022/10/25 01:28:20;;;;;;;;;;;;;;;13.40;100.00;97795.55;104547;1332;22393;-88
2022/10/25 01:30:51;;;;;;;;;;;;;;;13.40;100.00;97794.00;104468;1331;22399;-89
2022/10/25 01:33:18;;;;;;;;;;;;;;;13.38;100.00;97793.56;104450;1324;22390;-89
2022/10/25 01:36:08;;;;;;;;;;;;;;;13.39;100.00;97792.89;104473;1330;22479;-88
2022/10/25 01:38:36;;;;;;;;;;;;;;;13.38;100.00;97788.91;104222;1338;22395;-88
2022/10/25 01:41:04;;;;;;;;;;;;;;;13.37;100.00;97786.52;104541;1324;22434;-85
2022/10/25 01:43:40;;;;;;;;;;;;;;;13.37;100.00;97786.02;104474;1332;22374;-86
2022/10/25 01:46:16;;;;;;;;;;;;;;;13.39;100.00;97785.38;104466;1314;23516;-87
2022/10/25 01:48:49;;;;;;;;;;;;;;;13.41;100.00;97782.28;104239;1338;22446;-86
2022/10/25 01:51:17;;;;;;;;;;;;;;;13.41;100.00;97786.40;104243;1338;23191;-88
2022/10/25 01:53:46;;;;;;;;;;;;;;;13.35;100.00;97787.06;104233;1337;22405;-88
2022/10/25 01:56:25;;;;;;;;;;;;;;;13.31;100.00;97787.73;104347;1331;22449;-88
2022/10/25 01:59:10;;;;;;;;;;;;;;;13.28;100.00;97788.75;104237;1338;23078;-87
2022/10/25 02:01:38;;;;;;;;;;;;;;;13.27;100.00;97789.75;104685;1312;22459;-89
2022/10/25 02:04:09;;;;;;;;;;;;;;;13.28;100.00;97788.05;105160;1318;22365;-88
2022/10/25 02:06:46;;;;;;;;;;;;;;;13.25;100.00;97790.30;105842;1306;22478;-88
2022/10/25 02:09:36;;;;;;;;;;;;;;;13.24;100.00;97784.59;105839;1299;23014;-88
2022/10/25 02:12:06;;;;;;;;;;;;;;;13.22;100.00;97797.73;105418;1322;22339;-88
2022/10/25 02:14:37;;;;;;;;;;;;;;;13.21;100.00;97803.72;105829;1305;22394;-88
2022/10/25 02:17:15;;;;;;;;;;;;;;;13.18;100.00;97809.48;105574;1303;23136;-88
2022/10/25 02:19:45;;;;;;;;;;;;;;;13.16;100.00;97812.21;105441;1321;22261;-86
2022/10/25 02:22:14;;;;;;;;;;;;;;;13.11;100.00;97811.03;105315;1324;22880;-88
2022/10/25 02:24:44;;;;;;;;;;;;;;;13.08;100.00;97805.02;105652;1306;22374;-87
2022/10/25 02:27:12;;;;;;;;;;;;;;;13.05;100.00;97810.42;105816;1317;22267;-88
2022/10/25 02:29:41;;;;;;;;;;;;;;;13.04;100.00;97808.98;105668;1309;22416;-87
2022/10/25 02:32:09;;;;;;;;;;;;;;;13.03;100.00;97809.94;105405;1324;22358;-87
2022/10/25 02:34:38;;;;;;;;;;;;;;;12.99;100.00;97808.82;105425;1323;22220;-86
2022/10/25 02:37:05;;;;;;;;;;;;;;;12.97;100.00;97804.13;105841;1306;23040;-87
2022/10/25 02:39:33;;;;;;;;;;;;;;;12.96;100.00;97802.20;105410;1324;22324;-86
2022/10/25 02:42:01;;;;;;;;;;;;;;;12.96;100.00;97796.79;105836;1306;22987;-87
2022/10/25 02:44:29;;;;;;;;;;;;;;;12.95;100.00;97803.86;105405;1322;22242;-86
2022/10/25 02:46:57;;;;;;;;;;;;;;;12.92;100.00;97805.27;105667;1317;22358;-87
2022/10/25 02:49:25;;;;;;;;;;;;;;;12.91;100.00;97799.69;105838;1317;22276;-86
2022/10/25 02:51:53;;;;;;;;;;;;;;;12.91;100.00;97797.03;105850;1316;22366;-87
2022/10/25 02:54:21;;;;;;;;;;;;;;;12.89;100.00;97801.20;105859;1303;22340;-87
2022/10/25 02:56:51;;;;;;;;;;;;;;;12.86;100.00;97799.96;105846;1317;22390;-88
2022/10/25 02:59:20;;;;;;;;;;;;;;;12.81;100.00;97802.69;105844;1317;22319;-85
2022/10/25 03:01:47;;;;;;;;;;;;;;;12.80;100.00;97799.23;105789;1302;22278;-89
2022/10/25 03:04:15;;;;;;;;;;;;;;;12.76;100.00;97804.68;105832;1317;22305;-88
2022/10/25 03:06:43;;;;;;;;;;;;;;;12.75;100.00;97804.33;105802;1299;22285;-89
2022/10/25 03:09:11;;;;;;;;;;;;;;;12.71;100.00;97805.89;105437;1323;22218;-89
2022/10/25 03:11:39;;;;;;;;;;;;;;;12.70;100.00;97804.16;105415;1323;22985;-89
2022/10/25 03:14:06;;;;;;;;;;;;;;;12.68;100.00;97804.18;105680;1306;23077;-89
2022/10/25 03:16:34;;;;;;;;;;;;;;;12.69;100.00;97802.25;105852;1301;22365;-88
2022/10/25 03:19:02;;;;;;;;;;;;;;;12.68;100.00;97807.39;105910;1317;22290;-89
2022/10/25 03:21:30;;;;;;;;;;;;;;;12.65;100.00;97808.52;105812;1302;22276;-88
2022/10/25 03:23:57;;;;;;;;;;;;;;;12.66;100.00;97818.11;105805;1312;22790;-88
2022/10/25 03:26:25;;;;;;;;;;;;;;;12.63;100.00;97816.83;105413;1316;22262;-86
2022/10/25 03:28:53;;;;;;;;;;;;;;;12.62;100.00;97820.27;105379;1324;22233;-87
2022/10/25 03:31:21;;;;;;;;;;;;;;;12.62;100.00;97823.48;105432;1323;22999;-88
2022/10/25 03:33:50;;;;;;;;;;;;;;;12.61;100.00;97829.09;105847;1317;22300;-89
2022/10/25 03:36:17;;;;;;;;;;;;;;;12.63;100.00;97830.34;105437;1322;22402;-89
2022/10/25 03:38:45;;;;;;;;;;;;;;;12.61;100.00;97834.02;105787;1309;23067;-87
2022/10/25 03:41:13;;;;;;;;;;;;;;;12.57;100.00;97834.89;105425;1322;22239;-87
2022/10/25 03:43:41;;;;;;;;;;;;;;;12.53;100.00;97835.44;105803;1308;23083;-87
2022/10/25 03:46:08;;;;;;;;;;;;;;;12.50;100.00;97835.73;105782;1312;23048;-87
2022/10/25 03:48:36;;;;;;;;;;;;;;;12.48;100.00;97834.55;105789;1316;22323;-85
2022/10/25 03:51:04;;;;;;;;;;;;;;;12.49;100.00;97835.23;105817;1317;22291;-87
2022/10/25 03:53:32;;;;;;;;;;;;;;;12.51;100.00;97836.38;105779;1314;22307;-87
2022/10/25 03:56:00;;;;;;;;;;;;;;;12.51;100.00;97840.58;105427;1307;23171;-87
2022/10/25 03:58:27;;;;;;;;;;;;;;;12.49;100.00;97837.86;105376;1324;22283;-87
2022/10/25 04:00:56;;;;;;;;;;;;;;;12.51;100.00;97833.48;105401;1321;22875;-87
2022/10/25 04:03:23;;;;;;;;;;;;;;;12.53;100.00;97831.08;105406;1324;22204;-87
2022/10/25 04:05:51;;;;;;;;;;;;;;;12.55;100.00;97830.57;105827;1317;23010;-87
2022/10/25 04:08:19;;;;;;;;;;;;;;;12.55;100.00;97832.34;105786;1316;22359;-87
2022/10/25 04:10:47;;;;;;;;;;;;;;;12.53;100.00;97836.41;105794;1317;22882;-88
2022/10/25 04:13:14;;;;;;;;;;;;;;;12.52;100.00;97839.79;105406;1323;23025;-88
2022/10/25 04:15:42;;;;;;;;;;;;;;;12.52;100.00;97839.14;105658;1302;22959;-87
2022/10/25 04:18:10;;;;;;;;;;;;;;;12.51;100.00;97839.82;105798;1300;22298;-87
2022/10/25 04:20:38;;;;;;;;;;;;;;;12.52;100.00;97841.46;105798;1317;22253;-87
2022/10/25 04:23:05;;;;;;;;;;;;;;;12.52;100.00;97839.37;105804;1302;23227;-88
2022/10/25 04:25:33;;;;;;;;;;;;;;;12.48;100.00;97846.55;105793;1317;22278;-86
2022/10/25 04:28:01;;;;;;;;;;;;;;;12.44;100.00;97847.19;105399;1323;22812;-88
2022/10/25 04:30:29;;;;;;;;;;;;;;;12.42;100.00;97842.23;105788;1315;22291;-87
2022/10/25 04:33:01;;;;;;;;;;;;;;;12.43;100.00;97842.52;105795;1306;22530;-87
2022/10/25 04:35:29;;;;;;;;;;;;;;;12.43;100.00;97841.81;105802;1316;22337;-87
2022/10/25 04:37:57;;;;;;;;;;;;;;;12.42;100.00;97844.08;105771;1317;22321;-86
2022/10/25 04:40:25;;;;;;;;;;;;;;;12.42;100.00;97842.23;105777;1299;22326;-87
2022/10/25 04:42:53;;;;;;;;;;;;;;;12.44;100.00;97846.12;105767;1317;22272;-86
2022/10/25 04:45:21;;;;;;;;;;;;;;;12.44;100.00;97847.80;105806;1317;22267;-88
2022/10/25 04:47:48;;;;;;;;;;;;;;;12.44;100.00;97844.59;105409;1323;22252;-88
2022/10/25 04:50:16;;;;;;;;;;;;;;;12.45;100.00;97842.89;105371;1323;23063;-87
2022/10/25 04:52:44;;;;;;;;;;;;;;;12.45;100.00;97841.44;105430;1324;22237;-87
2022/10/25 04:55:12;;;;;;;;;;;;;;;12.43;100.00;97840.73;105810;1308;22268;-88
2022/10/25 04:57:40;;;;;;;;;;;;;;;12.42;100.00;97838.77;105389;1324;22420;-88
2022/10/25 05:00:08;;;;;;;;;;;;;;;12.39;100.00;97841.70;105388;1323;22246;-88
2022/10/25 05:02:36;;;;;;;;;;;;;;;12.38;100.00;97846.44;105339;1324;22295;-87
2022/10/25 05:05:04;;;;;;;;;;;;;;;12.38;100.00;97842.98;105765;1317;22925;-86
2022/10/25 05:07:32;;;;;;;;;;;;;;;12.38;100.00;97837.63;105370;1323;22225;-88
2022/10/25 05:09:59;;;;;;;;;;;;;;;12.39;100.00;97833.82;105370;1308;22253;-87
2022/10/25 05:12:27;;;;;;;;;;;;;;;12.39;100.00;97830.92;105318;1323;22478;-88
2022/10/25 05:14:55;;;;;;;;;;;;;;;12.39;100.00;97828.92;105406;1323;22247;-87
2022/10/25 05:17:23;;;;;;;;;;;;;;;12.37;100.00;97825.06;105780;1317;22310;-89
2022/10/25 05:19:50;;;;;;;;;;;;;;;12.37;100.00;97828.79;105648;1317;22296;-88
2022/10/25 05:22:18;;;;;;;;;;;;;;;12.37;100.00;97824.76;105758;1317;22327;-89
2022/10/25 05:24:46;;;;;;;;;;;;;;;12.36;100.00;97824.52;105791;1315;22268;-87
2022/10/25 05:27:14;;;;;;;;;;;;;;;12.36;100.00;97825.39;105397;1324;22239;-88
2022/10/25 05:29:41;;;;;;;;;;;;;;;12.36;100.00;97822.65;105398;1323;22344;-87
2022/10/25 05:32:09;;;;;;;;;;;;;;;12.38;100.00;97825.11;105767;1298;22306;-87
2022/10/25 05:34:37;;;;;;;;;;;;;;;12.39;100.00;97831.02;105767;1316;22286;-87
2022/10/25 05:37:05;;;;;;;;;;;;;;;12.39;100.00;97837.06;105329;1323;22311;-87
2022/10/25 05:39:32;;;;;;;;;;;;;;;12.41;100.00;97841.77;105358;1323;22254;-88
2022/10/25 05:42:05;;;;;;;;;;;;;;;12.39;100.00;97845.23;105649;1303;22276;-87
2022/10/25 05:44:32;;;;;;;;;;;;;;;12.40;100.00;97847.69;105376;1315;22250;-86
2022/10/25 05:47:00;;;;;;;;;;;;;;;12.37;100.00;97847.38;105798;1316;22285;-93
2022/10/25 05:49:28;;;;;;;;;;;;;;;12.35;100.00;97849.17;105692;1317;22271;-87
2022/10/25 05:51:56;;;;;;;;;;;;;;;12.33;100.00;97852.27;105646;1315;22995;-88
2022/10/25 05:54:23;;;;;;;;;;;;;;;12.34;100.00;97854.88;105770;1312;22962;-88
2022/10/25 05:56:51;;;;;;;;;;;;;;;12.35;100.00;97854.21;105643;1312;22360;-87
2022/10/25 05:59:19;;;;;;;;;;;;;;;12.35;100.00;97858.09;105776;1302;22307;-88
2022/10/25 06:01:47;;;;;;;;;;;;;;;12.38;100.00;97857.37;105784;1317;22300;-88
2022/10/25 06:04:15;;;;;;;;;;;;;;;12.40;100.00;97858.88;105407;1323;22289;-87
2022/10/25 06:06:44;;;;;;;;;;;;;;;12.42;100.00;97859.52;105825;1317;22319;-88
2022/10/25 06:09:12;;;;;;;;;;;;;;;12.44;100.00;97859.84;105799;1317;22270;-86
2022/10/25 06:11:40;;;;;;;;;;;;;;;12.45;100.00;97859.34;105803;1300;22283;-87
2022/10/25 06:14:08;;;;;;;;;;;;;;;12.47;100.00;97867.17;105782;1317;22333;-86
2022/10/25 06:16:36;;;;;;;;;;;;;;;12.51;100.00;97880.20;105308;1324;22287;-88
2022/10/25 06:19:05;;;;;;;;;;;;;;;12.53;100.00;97891.23;105889;1306;23025;-87
2022/10/25 06:21:33;;;;;;;;;;;;;;;12.54;100.00;97896.10;105398;1320;22363;-87
2022/10/25 06:24:00;;;;;;;;;;;;;;;12.54;100.00;97898.33;105834;1315;22282;-92
2022/10/25 06:26:29;;;;;;;;;;;;;;;12.56;100.00;97904.45;105877;1316;22321;-90
2022/10/25 06:28:59;;;;;;;;;;;;;;;12.58;100.00;97903.30;105315;1317;22288;-89
2022/10/25 06:31:28;;;;;;;;;;;;;;;12.61;100.00;97906.77;105546;1323;22244;-89
2022/10/25 06:34:25;;;;;;;;;;;;;;;12.60;100.00;97905.70;105830;1306;22305;-87
2022/10/25 06:36:52;;;;;;;;;;;;;;;12.62;100.00;97902.38;105842;1317;22293;-86
2022/10/25 06:39:20;;;;;;;;;;;;;;;12.63;100.00;97907.87;105397;1316;22286;-87
2022/10/25 06:41:48;;;;;;;;;;;;;;;12.59;100.00;97901.82;105323;1323;22360;-86
2022/10/25 06:44:16;;;;;;;;;;;;;;;12.56;100.00;97906.61;105680;1301;22292;-86
2022/10/25 06:46:43;;;;;;;;;;;;;;;12.55;100.00;97907.08;105807;1302;22339;-88
2022/10/25 06:49:31;;;;;;;;;;;;;;;12.57;100.00;97910.36;105827;1300;22942;-87
2022/10/25 06:51:59;;;;;;;;;;;;;;;12.60;100.00;97915.42;105822;1316;22343;-88
2022/10/25 06:54:27;;;;;;;;;;;;;;;12.63;100.00;97917.23;105679;1316;22325;-87
2022/10/25 06:56:54;;;;;;;;;;;;;;;12.65;100.00;97919.63;105398;1317;22381;-86
2022/10/25 06:59:22;;;;;;;;;;;;;;;12.67;100.00;97919.83;105806;1299;22297;-88
2022/10/25 07:01:51;;;;;;;;;;;;;;;12.67;100.00;97927.16;105799;1300;22382;-87
2022/10/25 07:04:19;;;;;;;;;;;;;;;12.70;100.00;97938.02;105392;1314;22213;-86
2022/10/25 07:06:47;;;;;;;;;;;;;;;12.75;100.00;97946.77;105438;1322;22277;-88
2022/10/25 07:09:20;;;;;;;;;;;;;;;12.76;100.00;97944.25;105397;1323;22282;-87
2022/10/25 07:11:48;;;;;;;;;;;;;;;12.78;100.00;97953.80;105314;1319;22263;-87
2022/10/25 07:14:16;;;;;;;;;;;;;;;12.80;100.00;97955.03;105786;1316;22369;-87
2022/10/25 07:16:44;;;;;;;;;;;;;;;12.75;100.00;97963.42;105405;1323;22280;-87
2022/10/25 07:19:11;;;;;;;;;;;;;;;12.71;100.00;97962.05;105784;1315;23119;-88
2022/10/25 07:21:40;;;;;;;;;;;;;;;12.73;100.00;97963.52;105813;1316;22306;-86
2022/10/25 07:24:10;;;;;;;;;;;;;;;12.78;100.00;97967.77;105799;1313;22304;-87
2022/10/25 07:26:39;;;;;;;;;;;;;;;12.82;100.00;97965.88;105403;1323;22249;-86
2022/10/25 07:29:07;;;;;;;;;;;;;;;12.87;100.00;97965.68;105800;1300;23015;-86
2022/10/25 07:31:36;;;;;;;;;;;;;;;12.95;100.00;97963.20;105391;1322;22886;-87
2022/10/25 07:34:05;;;;;;;;;;;;;;;13.05;100.00;97964.38;105648;1305;23053;-87
2022/10/25 07:36:33;;;;;;;;;;;;;;;13.17;100.00;97962.09;105296;1316;22712;-88
2022/10/25 07:39:02;;;;;;;;;;;;;;;13.28;100.00;97955.36;105592;1312;22331;-87
2022/10/25 07:41:29;;;;;;;;;;;;;;;13.40;100.00;97950.98;105390;1322;22289;-87
2022/10/25 07:43:57;;;;;;;;;;;;;;;13.46;100.00;97944.59;105774;1317;22290;-86
2022/10/25 07:46:25;;;;;;;;;;;;;;;13.49;100.00;97936.58;105758;1315;22315;-87
2022/10/25 07:48:53;;;;;;;;;;;;;;;13.52;100.00;97937.68;105316;1324;22259;-86
2022/10/25 07:51:21;;;;;;;;;;;;;;;13.52;100.00;97928.00;105386;1323;22344;-87
2022/10/25 07:53:49;;;;;;;;;;;;;;;13.55;100.00;97928.33;105305;1323;22339;-85
2022/10/25 07:56:18;;;;;;;;;;;;;;;13.64;100.00;97928.33;105389;1322;22422;-86
2022/10/25 07:58:51;;;;;;;;;;;;;;;13.74;100.00;97923.11;105282;1324;22317;-88
2022/10/25 08:01:22;;;;;;;;;;;;;;;13.80;100.00;97920.59;105809;1306;22264;-88
2022/10/25 08:03:51;;;;;;;;;;;;;;;13.84;100.00;97913.08;105646;1298;22285;-87
2022/10/25 08:06:20;;;;;;;;;;;;;;;13.93;100.00;97915.24;105807;1317;22338;-87
2022/10/25 08:08:48;;;;;;;;;;;;;;;14.02;100.00;97918.58;105444;1313;22896;-87
2022/10/25 08:11:16;;;;;;;;;;;;;;;14.16;100.00;97917.54;105400;1322;22260;-88
2022/10/25 08:13:46;;;;;;;;;;;;;;;14.25;100.00;97915.29;105306;1319;22387;-87
2022/10/25 08:16:14;;;;;;;;;;;;;;;14.36;100.00;97912.59;105324;1324;22262;-87
2022/10/25 08:18:42;;;;;;;;;;;;;;;14.46;100.00;97915.81;105796;1308;22315;-87
2022/10/25 08:21:10;;;;;;;;;;;;;;;14.51;100.00;97922.16;105400;1323;22453;-87
2022/10/25 08:23:38;;;;;;;;;;;;;;;14.57;100.00;97924.01;105640;1306;22304;-87
2022/10/25 08:26:06;;;;;;;;;;;;;;;14.67;100.00;97927.45;105638;1315;22433;-87
2022/10/25 08:28:34;;;;;;;;;;;;;;;14.75;99.92;97934.05;105368;1323;22431;-87
2022/10/25 08:31:03;;;;;;;;;;;;;;;14.72;99.30;97939.77;105784;1302;22335;-87
2022/10/25 08:33:31;;;;;;;;;;;;;;;14.65;99.57;97943.34;105406;1323;22884;-87
2022/10/25 08:36:00;;;;;;;;;;;;;;;14.61;99.69;97950.13;105412;1316;23213;-86
2022/10/25 08:38:28;;;;;;;;;;;;;;;14.51;98.73;97957.46;105620;1316;22319;-87
2022/10/25 08:41:00;;;;;;;;;;;;;;;14.38;97.05;97962.67;105391;1323;22936;-87
2022/10/25 08:43:50;;;;;;;;;;;;;;;14.20;97.34;97966.98;105790;1306;22340;-87
2022/10/25 08:46:25;;;;;;;;;;;;;;;14.07;97.63;97972.60;105438;1323;22249;-88
2022/10/25 08:48:58;;;;;;;;;;;;;;;13.94;97.80;97976.20;105615;1305;22299;-87
2022/10/25 08:51:25;;;;;;;;;;;;;;;13.76;98.11;97988.77;106056;1306;22298;-86
2022/10/25 08:53:55;;;;;;;;;;;;;;;13.61;98.65;97987.48;105611;1319;22351;-86
2022/10/25 08:56:24;;;;;;;;;;;;;;;13.47;99.14;97981.26;105596;1323;22706;-88
2022/10/25 08:58:59;;;;;;;;;;;;;;;13.35;99.66;97982.38;105259;1325;22376;-87
2022/10/25 09:01:39;;;;;;;;;;;;;;;13.23;99.88;97989.12;105952;1306;22991;-85
2022/10/25 09:04:07;;;;;;;;;;;;;;;13.11;100.00;97988.08;105318;1324;22241;-87
2022/10/25 09:06:58;;;;;;;;;;;;;;;12.97;100.00;97989.87;105844;1306;23065;-87
2022/10/25 09:09:26;;;;;;;;;;;;;;;12.88;100.00;97987.02;105574;1317;23207;-89
2022/10/25 09:11:54;;;;;;;;;;;;;;;12.83;100.00;97987.70;105400;1322;23493;-87
2022/10/25 09:14:40;;;;;;;;;;;;;;;12.80;100.00;97989.73;105820;1299;22369;-86
2022/10/25 09:17:18;;;;;;;;;;;;;;;12.71;100.00;97984.98;105816;1299;22316;-88
2022/10/25 09:19:52;;;;;;;;;;;;;;;12.66;100.00;97980.02;105425;1324;22308;-89
2022/10/25 09:22:25;;;;;;;;;;;;;;;12.65;100.00;97974.31;105798;1317;22429;-89
2022/10/25 09:25:00;;;;;;;;;;;;;;;12.62;100.00;97973.27;105842;1316;22271;-90
2022/10/25 09:27:35;;;;;;;;;;;;;;;12.65;100.00;97975.41;105333;1324;23018;-87
2022/10/25 09:30:08;;;;;;;;;;;;;;;12.70;100.00;97982.14;105352;1324;22245;-90
2022/10/25 09:32:38;;;;;;;;;;;;;;;12.69;100.00;97981.48;105416;1316;22251;-88
2022/10/25 09:35:14;;;;;;;;;;;;;;;12.71;100.00;97977.15;105345;1324;23074;-91
2022/10/25 09:37:47;;;;;;;;;;;;;;;12.75;100.00;97979.52;105402;1324;22245;-89
2022/10/25 09:40:18;;;;;;;;;;;;;;;12.80;100.00;97980.31;105816;1300;22317;-93
2022/10/25 09:42:56;;;;;;;;;;;;;;;12.83;100.00;97980.45;105350;1323;22263;-91
2022/10/25 09:45:28;;;;;;;;;;;;;;;12.86;100.00;97981.08;106031;1299;22939;-88
2022/10/25 09:48:04;;;;;;;;;;;;;;;12.91;100.00;97981.95;105476;1323;22860;-87
2022/10/25 09:50:51;;;;;;;;;;;;;;;13.02;100.00;97978.65;105800;1316;22292;-88
2022/10/25 09:53:19;;;;;;;;;;;;;;;13.10;100.00;97978.91;105438;1319;22417;-85
2022/10/25 09:55:50;;;;;;;;;;;;;;;13.16;100.00;97976.58;105824;1316;22391;-85
2022/10/25 09:58:21;;;;;;;;;;;;;;;13.20;100.00;97979.61;105827;1316;22954;-88
2022/10/25 10:00:51;;;;;;;;;;;;;;;13.17;100.00;97976.80;105881;1316;22338;-87
2022/10/25 10:03:19;;;;;;;;;;;;;;;13.13;100.00;97967.17;105426;1323;22220;-88
2022/10/25 10:05:54;;;;;;;;;;;;;;;13.15;100.00;97963.08;105282;1323;149282;-84
2022/10/25 10:08:23;;;;;;;;;;;;;;;13.20;100.00;97955.11;105669;1316;22284;-86
2022/10/25 10:10:52;;;;;;;;;;;;;;;13.29;100.00;97955.48;105411;1324;23053;-89
2022/10/25 10:13:52;;;;;;;;;;;;;;;13.33;100.00;97954.42;105636;1316;22314;-84
2022/10/25 10:16:22;;;;;;;;;;;;;;;13.38;100.00;97960.66;104948;1325;22488;-86
2022/10/25 10:18:50;;;;;;;;;;;;;;;13.40;100.00;97962.03;104762;1326;22444;-86
2022/10/25 10:21:19;;;;;;;;;;;;;;;13.39;100.00;97965.66;104861;1331;22367;-85
2022/10/25 10:23:47;;;;;;;;;;;;;;;13.42;100.00;97972.48;104664;1333;22265;-84
2022/10/25 10:26:24;;;;;;;;;;;;;;;13.45;100.00;97973.30;104796;1331;22533;-85
2022/10/25 10:29:03;;;;;;;;;;;;;;;13.54;100.00;97977.47;104774;1333;22261;-85
2022/10/25 10:31:37;;;;;;;;;;;;;;;13.56;100.00;97971.23;104794;1323;22448;-87
2022/10/25 10:34:21;;;;;;;;;;;;;;;13.56;100.00;97972.53;104757;1331;22397;-86
2022/10/25 10:37:07;;;;;;;;;;;;;;;13.60;100.00;97972.95;104433;1333;22273;-88
2022/10/25 10:39:46;;;;;;;;;;;;;;;13.58;100.00;97968.09;104532;1331;22450;-87
2022/10/25 10:42:21;;;;;;;;;;;;;;;13.58;100.00;97966.21;104779;1325;22340;-87
2022/10/25 10:45:11;;;;;;;;;;;;;;;13.62;100.00;97975.35;104549;1333;22430;-88
2022/10/25 10:47:43;;;;;;;;;;;;;;;13.70;100.00;97976.09;104868;1318;22341;-88
2022/10/25 10:50:17;;;;;;;;;;;;;;;13.76;100.00;97976.77;104556;1333;22344;-87
2022/10/25 10:52:45;;;;;;;;;;;;;;;13.87;100.00;97971.39;105536;1314;22333;-86
2022/10/25 10:55:18;;;;;;;;;;;;;;;14.03;100.00;97966.13;105816;1306;22301;-85
2022/10/25 10:57:46;;;;;;;;;;;;;;;14.11;100.00;97962.20;105335;1323;22335;-89
2022/10/25 11:00:21;;;;;;;;;;;;;;;14.19;100.00;97963.12;105299;1324;22975;-84
2022/10/25 11:02:49;;;;;;;;;;;;;;;14.28;100.00;97966.36;105537;1317;22280;-84
2022/10/25 11:05:33;;;;;;;;;;;;;;;14.33;100.00;97968.53;105332;1322;22233;-87
2022/10/25 11:08:07;;;;;;;;;;;;;;;14.39;100.00;97962.05;105086;1325;22232;-86
2022/10/25 11:10:36;;;;;;;;;;;;;;;14.52;100.00;97962.23;105659;1317;22266;-85
2022/10/25 11:13:08;;;;;;;;;;;;;;;14.69;100.00;97965.45;105072;1324;22443;-85
2022/10/25 11:15:39;;;;;;;;;;;;;;;14.91;100.00;97971.08;105351;1318;22364;-84
2022/10/25 11:18:08;;;;;;;;;;;;;;;14.91;100.00;97972.17;105634;1309;22988;-83
2022/10/25 11:20:47;;;;;;;;;;;;;;;14.93;100.00;97973.18;105489;1319;22401;-85
2022/10/25 11:23:20;;;;;;;;;;;;;;;14.86;100.00;97966.51;105635;1308;22967;-85
2022/10/25 11:25:53;;;;;;;;;;;;;;;14.94;99.63;97968.39;105668;1308;22310;-85
2022/10/25 11:28:24;;;;;;;;;;;;;;;15.02;99.51;97967.94;105662;1305;23163;-84
2022/10/25 11:31:12;;;;;;;;;;;;;;;15.13;98.91;97968.41;105646;1315;22291;-84
2022/10/25 11:33:43;;;;;;;;;;;;;;;15.08;97.81;97971.27;105668;1320;22340;-84
2022/10/25 11:36:12;;;;;;;;;;;;;;;15.05;98.24;97969.68;105320;1323;22346;-83
2022/10/25 11:38:58;;;;;;;;;;;;;;;15.11;98.62;97973.27;105653;1306;22299;-87
2022/10/25 11:41:41;;;;;;;;;;;;;;;15.23;98.69;97970.56;105620;1315;22993;-87
2022/10/25 11:44:27;;;;;;;;;;;;;;;15.48;98.03;97970.30;105658;1323;22315;-88
2022/10/25 11:47:13;;;;;;;;;;;;;;;15.75;98.26;97965.38;105322;1315;22852;-84
2022/10/25 11:50:01;;;;;;;;;;;;;;;15.91;98.24;97962.04;105641;1316;23097;-85
2022/10/25 11:52:40;;;;;;;;;;;;;;;15.87;96.32;97958.45;105342;1323;22296;-89
2022/10/25 11:55:18;;;;;;;;;;;;;;;15.86;95.25;97960.83;105069;1327;22245;-90
2022/10/25 11:57:46;;;;;;;;;;;;;;;15.95;94.72;97956.41;105660;1316;22277;-90
2022/10/25 12:00:30;;;;;;;;;;;;;;;16.12;94.73;97957.73;105658;1315;22380;-90
2022/10/25 12:03:09;;;;;;;;;;;;;;;16.43;95.55;97956.41;105659;1317;22283;-89
2022/10/25 12:05:39;;;;;;;;;;;;;;;16.69;94.32;97966.58;105648;1310;22271;-88
2022/10/25 12:08:10;;;;;;;;;;;;;;;16.65;92.46;97965.34;105625;1317;22358;-89
2022/10/25 12:10:40;;;;;;;;;;;;;;;16.48;92.25;97968.17;105322;1323;22975;-86
2022/10/25 12:13:28;;;;;;;;;;;;;;;16.29;92.68;97966.73;105309;1324;22432;-87
2022/10/25 12:15:57;;;;;;;;;;;;;;;16.18;92.26;97968.27;104982;1324;22247;-86
2022/10/25 12:18:36;;;;;;;;;;;;;;;16.07;92.62;97961.77;105652;1305;22998;-86
2022/10/25 12:21:05;;;;;;;;;;;;;;;16.04;93.02;97962.44;105644;1316;22298;-88
2022/10/25 12:23:45;;;;;;;;;;;;;;;16.01;92.24;97960.68;105668;1315;22291;-86
2022/10/25 12:26:16;;;;;;;;;;;;;;;15.94;91.77;97962.06;105637;1316;22307;-87
2022/10/25 12:28:45;;;;;;;;;;;;;;;15.89;91.38;97961.88;105690;1316;22378;-85
2022/10/25 12:31:15;;;;;;;;;;;;;;;15.84;91.66;97964.58;105641;1316;22278;-87
2022/10/25 12:33:53;;;;;;;;;;;;;;;15.85;92.01;97965.09;105652;1302;22296;-86
2022/10/25 12:36:31;;;;;;;;;;;;;;;15.91;90.73;97962.80;105095;1330;22350;-88
2022/10/25 12:39:00;;;;;;;;;;;;;;;15.94;91.01;97961.05;105500;1302;22290;-87
2022/10/25 12:41:33;;;;;;;;;;;;;;;16.05;91.53;97963.99;105658;1317;22459;-87
2022/10/25 12:44:04;;;;;;;;;;;;;;;16.31;91.77;97961.11;105122;1324;22350;-88
2022/10/25 12:46:38;;;;;;;;;;;;;;;16.71;91.99;97960.04;105666;1302;22286;-87
2022/10/25 12:49:09;;;;;;;;;;;;;;;17.20;91.58;97956.67;105628;1302;22348;-87